Time;durP1;ratioP1;P1;durP2;ratioP2;P2;SDS_P1;SDS_P2;PMS_P1;PMS_P2;Temp;Humidity;BMP_temperature;BMP_pressure;BME280_temperature;BME280_humidity;BME280_pressure;Samples;Min_cycle;Max_cycle;Signal;HPM_P1;HPM_P2
2023/12/09 00:00:57;;;;;;;;;;;;;;;;;;2203149;59;6709;-19
2023/12/09 00:03:27;;;;;;;;;;;;;;;;;;2201118;59;6576;-18
2023/12/09 00:05:58;;;;;;;;;;;;;;;;;;2205842;59;7086;-21
2023/12/09 00:08:28;;;;;;;;;;;;;;;;;;2204716;59;6876;-18
2023/12/09 00:10:58;;;;;;;;;;;;;;;;;;2202781;59;7868;-18
2023/12/09 00:13:30;;;;;;;;;;;;;;;;;;2205458;59;7656;-18
2023/12/09 00:16:00;;;;;;;;;;;;;;;;;;2205824;59;7666;-18
2023/12/09 00:18:31;;;;;;;;;;;;;;;;;;2194526;59;7242;-18
2023/12/09 00:21:01;;;;;;;;;;;;;;;;;;2205208;67;6778;-22
2023/12/09 00:23:31;;;;;;;;;;;;;;;;;;2205520;59;7074;-18
2023/12/09 00:26:02;;;;;;;;;;;;;;;;;;2206766;67;6543;-18
2023/12/09 00:28:32;;;;;;;;;;;;;;;;;;2204930;59;7611;-19
2023/12/09 00:31:03;;;;;;;;;;;;;;;;;;2197733;59;7133;-18
2023/12/09 00:33:33;;;;;;;;;;;;;;;;;;2201691;59;7062;-18
2023/12/09 00:36:03;;;;;;;;;;;;;;;;;;2200090;67;6843;-17
2023/12/09 00:38:34;;;;;;;;;;;;;;;;;;2200508;67;7384;-18
2023/12/09 00:41:04;;;;;;;;;;;;;;;;;;2202961;59;6716;-18
2023/12/09 00:43:34;;;;;;;;;;;;;;;;;;2200835;59;6692;-18
2023/12/09 00:46:05;;;;;;;;;;;;;;;;;;2200163;67;6665;-18
2023/12/09 00:48:35;;;;;;;;;;;;;;;;;;2202029;59;7529;-18
2023/12/09 00:51:05;;;;;;;;;;;;;;;;;;2205725;59;6767;-18
2023/12/09 00:53:36;;;;;;;;;;;;;;;;;;2197847;59;6658;-18
2023/12/09 00:56:06;;;;;;;;;;;;;;;;;;2205695;59;6809;-17
2023/12/09 00:58:37;;;;;;;;;;;;;;;;;;2198060;59;6642;-19
2023/12/09 01:01:07;;;;;;;;;;;;;;;;;;2202682;59;6968;-18
2023/12/09 01:03:37;;;;;;;;;;;;;;;;;;2200741;59;8035;-18
2023/12/09 01:06:08;;;;;;;;;;;;;;;;;;2204885;59;6645;-18
2023/12/09 01:08:38;;;;;;;;;;;;;;;;;;2198471;63;7418;-18
2023/12/09 01:11:08;;;;;;;;;;;;;;;;;;2200749;59;6706;-18
2023/12/09 01:13:38;;;;;;;;;;;;;;;;;;2201203;59;6717;-18
2023/12/09 01:16:09;;;;;;;;;;;;;;;;;;2196670;59;6983;-17
2023/12/09 01:18:39;;;;;;;;;;;;;;;;;;2194026;59;7048;-18
2023/12/09 01:21:09;;;;;;;;;;;;;;;;;;2202094;59;6903;-20
2023/12/09 01:23:40;;;;;;;;;;;;;;;;;;2204723;59;7999;-21
2023/12/09 01:26:10;;;;;;;;;;;;;;;;;;2202466;67;6652;-21
2023/12/09 01:28:40;;;;;;;;;;;;;;;;;;2199354;67;6788;-21
2023/12/09 01:31:10;;;;;;;;;;;;;;;;;;2197314;67;6806;-21
2023/12/09 01:33:41;;;;;;;;;;;;;;;;;;2202702;67;6930;-19
2023/12/09 01:36:11;;;;;;;;;;;;;;;;;;2205623;59;6617;-18
2023/12/09 01:38:41;;;;;;;;;;;;;;;;;;2198494;67;7800;-20
2023/12/09 01:41:12;;;;;;;;;;;;;;;;;;2204467;59;6587;-20
2023/12/09 01:43:46;;;;;;;;;;;;;;;;;;2205573;66;6706;-21
2023/12/09 01:46:17;;;;;;;;;;;;;;;;;;2198809;67;6802;-20
2023/12/09 01:48:47;;;;;;;;;;;;;;;;;;2202864;63;6745;-20
2023/12/09 01:51:18;;;;;;;;;;;;;;;;;;2198400;59;6729;-17
2023/12/09 01:53:48;;;;;;;;;;;;;;;;;;2203402;59;7989;-18
2023/12/09 01:56:20;;;;;;;;;;;;;;;;;;2205693;59;6622;-18
2023/12/09 01:58:51;;;;;;;;;;;;;;;;;;2205276;66;7474;-18
2023/12/09 02:01:21;;;;;;;;;;;;;;;;;;2203785;59;7507;-18
2023/12/09 02:03:52;;;;;;;;;;;;;;;;;;2205402;59;7331;-18
2023/12/09 02:06:22;;;;;;;;;;;;;;;;;;2204224;59;7162;-18
2023/12/09 02:08:54;;;;;;;;;;;;;;;;;;2204110;59;8078;-18
2023/12/09 02:11:33;;;;;;;;;;;;;;;;;;2199991;59;7358;-18
2023/12/09 02:14:16;;;;;;;;;;;;;;;;;;2202799;59;7012;-18
2023/12/09 02:16:49;;;;;;;;;;;;;;;;;;2201045;59;6825;-18
2023/12/09 02:19:21;;;;;;;;;;;;;;;;;;2196687;59;6627;-18
2023/12/09 02:21:58;;;;;;;;;;;;;;;;;;2202619;59;7278;-18
2023/12/09 02:24:28;;;;;;;;;;;;;;;;;;2198009;59;8037;-18
2023/12/09 02:27:02;;;;;;;;;;;;;;;;;;2199651;59;7203;-18
2023/12/09 02:29:34;;;;;;;;;;;;;;;;;;2198588;59;7161;-17
2023/12/09 02:32:06;;;;;;;;;;;;;;;;;;2203773;59;6763;-17
2023/12/09 02:34:39;;;;;;;;;;;;;;;;;;2201881;67;6682;-18
2023/12/09 02:37:11;;;;;;;;;;;;;;;;;;2202756;59;7089;-18
2023/12/09 02:39:42;;;;;;;;;;;;;;;;;;2204554;66;7457;-18
2023/12/09 02:42:13;;;;;;;;;;;;;;;;;;2205737;59;7334;-18
2023/12/09 02:44:44;;;;;;;;;;;;;;;;;;2199592;59;7697;-18
2023/12/09 02:47:14;;;;;;;;;;;;;;;;;;2205504;59;7261;-18
2023/12/09 02:49:45;;;;;;;;;;;;;;;;;;2198926;59;7183;-18
2023/12/09 02:52:15;;;;;;;;;;;;;;;;;;2206883;59;6739;-18
2023/12/09 02:54:46;;;;;;;;;;;;;;;;;;2198941;64;7063;-19
2023/12/09 02:57:16;;;;;;;;;;;;;;;;;;2201083;59;7628;-18
2023/12/09 02:59:46;;;;;;;;;;;;;;;;;;2205606;66;7644;-18
2023/12/09 03:02:17;;;;;;;;;;;;;;;;;;2203681;59;6977;-17
2023/12/09 03:04:47;;;;;;;;;;;;;;;;;;2205257;59;6543;-17
2023/12/09 03:07:20;;;;;;;;;;;;;;;;;;2202204;59;7017;-18
2023/12/09 03:09:50;;;;;;;;;;;;;;;;;;2202210;59;6671;-18
2023/12/09 03:12:20;;;;;;;;;;;;;;;;;;2205842;59;7248;-18
2023/12/09 03:14:50;;;;;;;;;;;;;;;;;;2205717;59;7602;-18
2023/12/09 03:17:21;;;;;;;;;;;;;;;;;;2201102;59;6727;-18
2023/12/09 03:19:51;;;;;;;;;;;;;;;;;;2199693;59;7940;-17
2023/12/09 03:22:21;;;;;;;;;;;;;;;;;;2206127;59;6676;-17
2023/12/09 03:24:52;;;;;;;;;;;;;;;;;;2197170;59;7372;-17
2023/12/09 03:27:22;;;;;;;;;;;;;;;;;;2201784;59;6810;-18
2023/12/09 03:29:52;;;;;;;;;;;;;;;;;;2201357;59;6673;-18
2023/12/09 03:32:23;;;;;;;;;;;;;;;;;;2201754;59;7749;-18
2023/12/09 03:34:53;;;;;;;;;;;;;;;;;;2202317;67;7834;-18
2023/12/09 03:37:23;;;;;;;;;;;;;;;;;;2202837;67;6670;-17
2023/12/09 03:39:54;;;;;;;;;;;;;;;;;;2199817;59;7180;-17
2023/12/09 03:42:24;;;;;;;;;;;;;;;;;;2199936;59;6756;-18
2023/12/09 03:44:54;;;;;;;;;;;;;;;;;;2198669;59;6855;-17
2023/12/09 03:47:24;;;;;;;;;;;;;;;;;;2201876;59;7174;-18
2023/12/09 03:49:54;;;;;;;;;;;;;;;;;;2201355;59;8013;-18
2023/12/09 03:52:25;;;;;;;;;;;;;;;;;;2202293;59;7687;-17
2023/12/09 03:54:55;;;;;;;;;;;;;;;;;;2205567;59;6942;-18
2023/12/09 03:57:26;;;;;;;;;;;;;;;;;;2197525;64;6744;-17
2023/12/09 03:59:56;;;;;;;;;;;;;;;;;;2202196;59;7212;-17
2023/12/09 04:02:26;;;;;;;;;;;;;;;;;;2205907;59;7241;-18
2023/12/09 04:04:57;;;;;;;;;;;;;;;;;;2201554;59;7279;-18
2023/12/09 04:07:27;;;;;;;;;;;;;;;;;;2201212;59;7003;-19
2023/12/09 04:09:58;;;;;;;;;;;;;;;;;;2204848;59;7842;-18
2023/12/09 04:12:28;;;;;;;;;;;;;;;;;;2204698;59;7932;-18
2023/12/09 04:14:59;;;;;;;;;;;;;;;;;;2205806;59;7764;-17
2023/12/09 04:17:29;;;;;;;;;;;;;;;;;;2205091;59;7169;-18
2023/12/09 04:19:59;;;;;;;;;;;;;;;;;;2197038;59;8012;-17
2023/12/09 04:22:29;;;;;;;;;;;;;;;;;;2206380;59;6751;-17
2023/12/09 04:24:59;;;;;;;;;;;;;;;;;;2202745;59;7005;-18
2023/12/09 04:27:31;;;;;;;;;;;;;;;;;;2204524;59;8068;-17
2023/12/09 04:30:04;;;;;;;;;;;;;;;;;;2205495;59;7302;-17
2023/12/09 04:32:35;;;;;;;;;;;;;;;;;;2205790;59;7376;-17
2023/12/09 04:35:06;;;;;;;;;;;;;;;;;;2205353;67;7285;-17
2023/12/09 04:37:36;;;;;;;;;;;;;;;;;;2205020;59;7565;-17
2023/12/09 04:40:10;;;;;;;;;;;;;;;;;;2201909;59;8549;-17
2023/12/09 04:42:40;;;;;;;;;;;;;;;;;;2201278;59;7191;-17
2023/12/09 04:45:10;;;;;;;;;;;;;;;;;;2194363;59;6966;-17
2023/12/09 04:47:41;;;;;;;;;;;;;;;;;;2200153;59;6895;-17
2023/12/09 04:50:11;;;;;;;;;;;;;;;;;;2202427;59;7005;-18
2023/12/09 04:52:41;;;;;;;;;;;;;;;;;;2201465;59;7026;-17
2023/12/09 04:55:11;;;;;;;;;;;;;;;;;;2202905;59;8356;-17
2023/12/09 04:57:42;;;;;;;;;;;;;;;;;;2200803;59;7284;-17
2023/12/09 05:00:12;;;;;;;;;;;;;;;;;;2200029;59;7173;-18
2023/12/09 05:02:44;;;;;;;;;;;;;;;;;;2201285;59;8032;-18
2023/12/09 05:05:14;;;;;;;;;;;;;;;;;;2202134;59;6956;-17
2023/12/09 05:07:44;;;;;;;;;;;;;;;;;;2200769;59;7216;-17
2023/12/09 05:10:14;;;;;;;;;;;;;;;;;;2198230;59;8183;-17
2023/12/09 05:12:45;;;;;;;;;;;;;;;;;;2202096;59;6728;-18
2023/12/09 05:15:15;;;;;;;;;;;;;;;;;;2206493;59;6687;-31
2023/12/09 05:17:45;;;;;;;;;;;;;;;;;;2203730;59;7224;-18
2023/12/09 05:20:15;;;;;;;;;;;;;;;;;;2197754;59;6788;-17
2023/12/09 05:22:46;;;;;;;;;;;;;;;;;;2201568;63;7443;-18
2023/12/09 05:25:17;;;;;;;;;;;;;;;;;;2206785;59;6862;-17
2023/12/09 05:27:47;;;;;;;;;;;;;;;;;;2198002;59;7877;-17
2023/12/09 05:30:18;;;;;;;;;;;;;;;;;;2205159;59;6648;-17
2023/12/09 05:32:49;;;;;;;;;;;;;;;;;;2202081;59;6756;-17
2023/12/09 05:35:19;;;;;;;;;;;;;;;;;;2200334;59;6638;-18
2023/12/09 05:37:49;;;;;;;;;;;;;;;;;;2196962;59;7122;-18
2023/12/09 05:40:20;;;;;;;;;;;;;;;;;;2201221;59;7118;-18
2023/12/09 05:42:50;;;;;;;;;;;;;;;;;;2205293;59;7228;-17
2023/12/09 05:45:21;;;;;;;;;;;;;;;;;;2195837;59;7477;-18
2023/12/09 05:47:51;;;;;;;;;;;;;;;;;;2197282;59;7921;-18
2023/12/09 05:50:21;;;;;;;;;;;;;;;;;;2201851;59;7220;-17
2023/12/09 05:52:51;;;;;;;;;;;;;;;;;;2197311;59;7248;-17
2023/12/09 05:55:22;;;;;;;;;;;;;;;;;;2199661;59;6647;-17
2023/12/09 05:57:52;;;;;;;;;;;;;;;;;;2201310;59;6611;-17
2023/12/09 06:00:23;;;;;;;;;;;;;;;;;;2205683;59;7566;-17
2023/12/09 06:02:53;;;;;;;;;;;;;;;;;;2205314;59;6935;-17
2023/12/09 06:05:23;;;;;;;;;;;;;;;;;;2205724;59;6725;-17
2023/12/09 06:07:54;;;;;;;;;;;;;;;;;;2203963;59;7081;-18
2023/12/09 06:10:24;;;;;;;;;;;;;;;;;;2202470;59;6671;-17
2023/12/09 06:12:54;;;;;;;;;;;;;;;;;;2200196;67;7328;-17
2023/12/09 06:15:25;;;;;;;;;;;;;;;;;;2199910;59;7829;-17
2023/12/09 06:17:55;;;;;;;;;;;;;;;;;;2202431;59;7378;-18
2023/12/09 06:20:25;;;;;;;;;;;;;;;;;;2196311;59;6666;-17
2023/12/09 06:22:55;;;;;;;;;;;;;;;;;;2203658;59;6643;-17
2023/12/09 06:25:26;;;;;;;;;;;;;;;;;;2206423;59;7132;-18
2023/12/09 06:27:56;;;;;;;;;;;;;;;;;;2203959;59;6632;-18
2023/12/09 06:30:26;;;;;;;;;;;;;;;;;;2206977;59;7076;-18
2023/12/09 06:32:56;;;;;;;;;;;;;;;;;;2202316;59;7657;-18
2023/12/09 06:35:26;;;;;;;;;;;;;;;;;;2201511;59;7397;-17
2023/12/09 06:37:57;;;;;;;;;;;;;;;;;;2201706;63;7858;-20
2023/12/09 06:40:27;;;;;;;;;;;;;;;;;;2200018;59;6672;-19
2023/12/09 06:42:57;;;;;;;;;;;;;;;;;;2201512;59;6929;-19
2023/12/09 06:45:28;;;;;;;;;;;;;;;;;;2194880;59;8166;-21
2023/12/09 06:47:58;;;;;;;;;;;;;;;;;;2201996;59;7147;-21
2023/12/09 06:50:28;;;;;;;;;;;;;;;;;;2198303;59;6747;-20
2023/12/09 06:53:01;;;;;;;;;;;;;;;;;;2199700;59;8438;-20
2023/12/09 06:55:32;;;;;;;;;;;;;;;;;;2206167;59;6643;-20
2023/12/09 06:58:02;;;;;;;;;;;;;;;;;;2198041;67;7129;-19
2023/12/09 07:00:32;;;;;;;;;;;;;;;;;;2199313;59;6712;-19
2023/12/09 07:03:02;;;;;;;;;;;;;;;;;;2205407;59;6635;-20
2023/12/09 07:05:33;;;;;;;;;;;;;;;;;;2205238;59;7736;-20
2023/12/09 07:08:03;;;;;;;;;;;;;;;;;;2203840;59;7664;-19
2023/12/09 07:10:33;;;;;;;;;;;;;;;;;;2206471;59;7065;-20
2023/12/09 07:13:04;;;;;;;;;;;;;;;;;;2206085;59;6618;-21
2023/12/09 07:15:34;;;;;;;;;;;;;;;;;;2206239;59;6797;-20
2023/12/09 07:18:05;;;;;;;;;;;;;;;;;;2198502;59;6901;-20
2023/12/09 07:20:35;;;;;;;;;;;;;;;;;;2203761;59;6620;-19
2023/12/09 07:23:05;;;;;;;;;;;;;;;;;;2203117;59;6879;-19
2023/12/09 07:25:35;;;;;;;;;;;;;;;;;;2206473;59;7688;-21
2023/12/09 07:28:06;;;;;;;;;;;;;;;;;;2206180;59;6543;-20
2023/12/09 07:30:36;;;;;;;;;;;;;;;;;;2207136;67;6677;-20
2023/12/09 07:33:06;;;;;;;;;;;;;;;;;;2201657;59;6762;-20
2023/12/09 07:35:39;;;;;;;;;;;;;;;;;;2204085;59;7087;-19
2023/12/09 07:38:09;;;;;;;;;;;;;;;;;;2204189;59;6666;-17
2023/12/09 07:40:40;;;;;;;;;;;;;;;;;;2202120;67;6717;-18
2023/12/09 07:43:10;;;;;;;;;;;;;;;;;;2203311;59;6991;-17
2023/12/09 07:45:40;;;;;;;;;;;;;;;;;;2196267;59;6627;-18
2023/12/09 07:48:11;;;;;;;;;;;;;;;;;;2206489;59;6806;-18
2023/12/09 07:50:41;;;;;;;;;;;;;;;;;;2200262;59;7243;-18
2023/12/09 07:53:11;;;;;;;;;;;;;;;;;;2200615;59;6684;-17
2023/12/09 07:55:42;;;;;;;;;;;;;;;;;;2201218;67;7451;-18
2023/12/09 07:58:12;;;;;;;;;;;;;;;;;;2206557;59;7623;-17
2023/12/09 08:00:43;;;;;;;;;;;;;;;;;;2200330;59;7178;-17
2023/12/09 08:03:13;;;;;;;;;;;;;;;;;;2204493;59;6633;-18
2023/12/09 08:05:43;;;;;;;;;;;;;;;;;;2199936;59;6993;-18
2023/12/09 08:08:13;;;;;;;;;;;;;;;;;;2202818;59;7717;-17
2023/12/09 08:10:44;;;;;;;;;;;;;;;;;;2201781;59;6807;-17
2023/12/09 08:13:14;;;;;;;;;;;;;;;;;;2204779;59;9032;-18
2023/12/09 08:15:44;;;;;;;;;;;;;;;;;;2204310;59;7293;-18
2023/12/09 08:18:16;;;;;;;;;;;;;;;;;;2202647;63;6681;-18
2023/12/09 08:20:46;;;;;;;;;;;;;;;;;;2203531;59;7677;-18
2023/12/09 08:23:16;;;;;;;;;;;;;;;;;;2205821;67;7152;-18
2023/12/09 08:25:46;;;;;;;;;;;;;;;;;;2202722;59;6692;-17
2023/12/09 08:28:17;;;;;;;;;;;;;;;;;;2203194;59;7506;-18
2023/12/09 08:30:47;;;;;;;;;;;;;;;;;;2202845;59;6775;-17
2023/12/09 08:33:17;;;;;;;;;;;;;;;;;;2205987;59;6645;-17
2023/12/09 08:35:47;;;;;;;;;;;;;;;;;;2205125;59;6750;-17
2023/12/09 08:38:18;;;;;;;;;;;;;;;;;;2206499;59;6995;-18
2023/12/09 08:40:48;;;;;;;;;;;;;;;;;;2201662;59;6740;-17
2023/12/09 08:43:18;;;;;;;;;;;;;;;;;;2202590;59;6739;-17
2023/12/09 08:45:48;;;;;;;;;;;;;;;;;;2199885;59;7199;-17
2023/12/09 08:48:19;;;;;;;;;;;;;;;;;;2205566;59;7696;-18
2023/12/09 08:50:49;;;;;;;;;;;;;;;;;;2203846;59;13111;-18
2023/12/09 08:53:19;;;;;;;;;;;;;;;;;;2198418;67;6812;-17
2023/12/09 08:55:49;;;;;;;;;;;;;;;;;;2201600;67;7148;-17
2023/12/09 08:58:20;;;;;;;;;;;;;;;;;;2202744;59;6630;-18
2023/12/09 09:00:50;;;;;;;;;;;;;;;;;;2203080;67;7837;-19
2023/12/09 09:03:20;;;;;;;;;;;;;;;;;;2205716;59;7864;-18
2023/12/09 09:05:51;;;;;;;;;;;;;;;;;;2203942;59;7867;-17
2023/12/09 09:08:22;;;;;;;;;;;;;;;;;;2206659;59;6638;-18
2023/12/09 09:10:52;;;;;;;;;;;;;;;;;;2201814;59;6718;-18
2023/12/09 09:13:23;;;;;;;;;;;;;;;;;;2206108;59;7003;-17
2023/12/09 09:15:53;;;;;;;;;;;;;;;;;;2204564;58;6614;-17
2023/12/09 09:18:23;;;;;;;;;;;;;;;;;;2202016;59;7654;-17
2023/12/09 09:20:53;;;;;;;;;;;;;;;;;;2203728;59;7215;-18
2023/12/09 09:23:24;;;;;;;;;;;;;;;;;;2203670;59;7953;-18
2023/12/09 09:25:55;;;;;;;;;;;;;;;;;;2199515;59;6705;-18
2023/12/09 09:28:25;;;;;;;;;;;;;;;;;;2197739;59;6732;-18
2023/12/09 09:30:55;;;;;;;;;;;;;;;;;;2202623;61;8133;-18
2023/12/09 09:33:26;;;;;;;;;;;;;;;;;;2204116;59;6727;-18
2023/12/09 09:35:56;;;;;;;;;;;;;;;;;;2203349;59;6732;-18
2023/12/09 09:38:26;;;;;;;;;;;;;;;;;;2201915;67;7156;-18
2023/12/09 09:40:56;;;;;;;;;;;;;;;;;;2203321;59;6729;-18
2023/12/09 09:43:30;;;;;;;;;;;;;;;;;;2201027;59;6652;-18
2023/12/09 09:46:03;;;;;;;;;;;;;;;;;;2190787;67;7614;-18
2023/12/09 09:48:36;;;;;;;;;;;;;;;;;;2204575;59;6671;-17
2023/12/09 09:51:07;;;;;;;;;;;;;;;;;;2195293;62;6803;-17
2023/12/09 09:53:44;;;;;;;;;;;;;;;;;;2203719;59;7700;-17
2023/12/09 09:56:15;;;;;;;;;;;;;;;;;;2204660;59;6686;-17
2023/12/09 09:58:46;;;;;;;;;;;;;;;;;;2205277;59;6661;-18
2023/12/09 10:01:18;;;;;;;;;;;;;;;;;;2204158;59;7287;-18
2023/12/09 10:03:48;;;;;;;;;;;;;;;;;;2198460;59;6628;-18
2023/12/09 10:06:19;;;;;;;;;;;;;;;;;;2201552;59;6642;-18
2023/12/09 10:08:50;;;;;;;;;;;;;;;;;;2201044;59;6794;-20
2023/12/09 10:11:20;;;;;;;;;;;;;;;;;;2203163;59;8176;-20
2023/12/09 10:13:51;;;;;;;;;;;;;;;;;;2202136;59;6617;-19
2023/12/09 10:16:21;;;;;;;;;;;;;;;;;;2203029;59;7546;-20
2023/12/09 10:18:53;;;;;;;;;;;;;;;;;;2197140;59;7169;-21
2023/12/09 10:21:24;;;;;;;;;;;;;;;;;;2202413;59;6655;-19
2023/12/09 10:23:55;;;;;;;;;;;;;;;;;;2206090;59;7061;-20
2023/12/09 10:26:25;;;;;;;;;;;;;;;;;;2202148;59;6682;-20
2023/12/09 10:28:56;;;;;;;;;;;;;;;;;;2201079;59;6621;-18
2023/12/09 10:31:27;;;;;;;;;;;;;;;;;;2202099;59;6738;-17
2023/12/09 10:33:58;;;;;;;;;;;;;;;;;;2201877;59;7715;-17
2023/12/09 10:36:29;;;;;;;;;;;;;;;;;;2204310;59;6612;-19
2023/12/09 10:38:59;;;;;;;;;;;;;;;;;;2203145;59;6672;-17
2023/12/09 10:41:31;;;;;;;;;;;;;;;;;;2202165;59;6627;-17
2023/12/09 10:44:02;;;;;;;;;;;;;;;;;;2200242;59;7137;-17
2023/12/09 10:46:34;;;;;;;;;;;;;;;;;;2192619;59;7368;-18
2023/12/09 10:49:04;;;;;;;;;;;;;;;;;;2199436;59;7599;-17
2023/12/09 10:51:34;;;;;;;;;;;;;;;;;;2204255;59;8044;-18
2023/12/09 10:54:05;;;;;;;;;;;;;;;;;;2204226;59;6657;-17
2023/12/09 10:56:36;;;;;;;;;;;;;;;;;;2205585;59;6684;-18
2023/12/09 10:59:08;;;;;;;;;;;;;;;;;;2194385;59;6634;-18
2023/12/09 11:01:40;;;;;;;;;;;;;;;;;;2198762;59;6668;-17
2023/12/09 11:04:12;;;;;;;;;;;;;;;;;;2203913;59;7589;-17
2023/12/09 11:06:45;;;;;;;;;;;;;;;;;;2197380;59;6838;-17
2023/12/09 11:09:15;;;;;;;;;;;;;;;;;;2198988;59;7175;-17
2023/12/09 11:11:46;;;;;;;;;;;;;;;;;;2203596;59;8425;-17
2023/12/09 11:14:18;;;;;;;;;;;;;;;;;;2199866;59;6936;-17
2023/12/09 11:16:48;;;;;;;;;;;;;;;;;;2199943;67;6931;-17
2023/12/09 11:19:19;;;;;;;;;;;;;;;;;;2193932;59;7167;-17
2023/12/09 11:21:49;;;;;;;;;;;;;;;;;;2203237;59;7697;-17
2023/12/09 11:24:19;;;;;;;;;;;;;;;;;;2198917;67;6672;-17
2023/12/09 11:26:50;;;;;;;;;;;;;;;;;;2204963;59;7029;-17
2023/12/09 11:29:21;;;;;;;;;;;;;;;;;;2205622;59;7004;-17
2023/12/09 11:31:53;;;;;;;;;;;;;;;;;;2199275;59;6723;-18
2023/12/09 11:34:24;;;;;;;;;;;;;;;;;;2203913;59;6729;-16
2023/12/09 11:36:56;;;;;;;;;;;;;;;;;;2198895;59;6696;-17
2023/12/09 11:39:27;;;;;;;;;;;;;;;;;;2204743;59;7115;-17
2023/12/09 11:41:57;;;;;;;;;;;;;;;;;;2198584;59;7223;-17
2023/12/09 11:44:28;;;;;;;;;;;;;;;;;;2201479;59;7264;-17
2023/12/09 11:47:00;;;;;;;;;;;;;;;;;;2196821;59;7595;-17
2023/12/09 11:49:32;;;;;;;;;;;;;;;;;;2197318;59;6705;-17
2023/12/09 11:52:02;;;;;;;;;;;;;;;;;;2201292;59;8164;-17
2023/12/09 11:54:34;;;;;;;;;;;;;;;;;;2202624;59;8000;-17
2023/12/09 11:57:05;;;;;;;;;;;;;;;;;;2195833;59;6669;-17
2023/12/09 11:59:36;;;;;;;;;;;;;;;;;;2213421;53;2481;-20
2023/12/09 12:02:06;;;;;;;;;;;;;;;;;;2213561;58;2353;-20
2023/12/09 12:04:37;;;;;;;;;;;;;;;;;;2215363;58;2017;-20
2023/12/09 12:07:07;;;;;;;;;;;;;;;;;;2213829;58;3630;-20
2023/12/09 12:09:38;;;;;;;;;;;;;;;;;;2215321;58;1921;-20
2023/12/09 12:12:09;;;;;;;;;;;;;;;;;;2213432;58;3281;-20
2023/12/09 12:14:39;;;;;;;;;;;;;;;;;;2212633;59;2597;-20
2023/12/09 12:17:09;;;;;;;;;;;;;;;;;;2214551;58;2126;-20
2023/12/09 12:19:40;;;;;;;;;;;;;;;;;;2214483;59;2110;-20
2023/12/09 12:22:10;;;;;;;;;;;;;;;;;;2214863;58;2242;-20
2023/12/09 12:24:44;;;;;;;;;;;;;;;;;;2218477;66;2388;-20
2023/12/09 12:27:14;;;;;;;;;;;;;;;;;;2214408;59;2098;-20
2023/12/09 12:29:45;;;;;;;;;;;;;;;;;;2215111;66;2429;-20
2023/12/09 12:32:15;;;;;;;;;;;;;;;;;;2213642;58;3448;-20
2023/12/09 12:34:45;;;;;;;;;;;;;;;;;;2216078;58;1819;-20
2023/12/09 12:37:17;;;;;;;;;;;;;;;;;;2214538;58;2785;-20
2023/12/09 12:39:47;;;;;;;;;;;;;;;;;;2215767;58;1933;-20
2023/12/09 12:42:18;;;;;;;;;;;;;;;;;;2214039;66;2205;-20
2023/12/09 12:44:48;;;;;;;;;;;;;;;;;;2215378;58;2642;-20
2023/12/09 12:47:18;;;;;;;;;;;;;;;;;;2214310;58;1802;-20
2023/12/09 12:49:49;;;;;;;;;;;;;;;;;;2214805;66;1961;-20
2023/12/09 12:52:19;;;;;;;;;;;;;;;;;;2212692;58;2795;-20
2023/12/09 12:54:49;;;;;;;;;;;;;;;;;;2216216;59;3281;-20
2023/12/09 12:57:20;;;;;;;;;;;;;;;;;;2215552;66;3133;-20
2023/12/09 12:59:50;;;;;;;;;;;;;;;;;;2218791;58;2013;-20
2023/12/09 13:02:23;;;;;;;;;;;;;;;;;;2215345;58;2101;-20
2023/12/09 13:04:53;;;;;;;;;;;;;;;;;;2215050;58;1917;-20
2023/12/09 13:07:24;;;;;;;;;;;;;;;;;;2214065;58;3068;-20
2023/12/09 13:09:54;;;;;;;;;;;;;;;;;;2212841;59;1939;-20
2023/12/09 13:12:25;;;;;;;;;;;;;;;;;;2214238;59;1960;-20
2023/12/09 13:14:56;;;;;;;;;;;;;;;;;;2216148;58;2267;-20
2023/12/09 13:17:26;;;;;;;;;;;;;;;;;;2215429;58;2540;-20
2023/12/09 13:19:56;;;;;;;;;;;;;;;;;;2215239;59;2204;-20
2023/12/09 13:22:27;;;;;;;;;;;;;;;;;;2214675;66;1819;-20
2023/12/09 13:24:57;;;;;;;;;;;;;;;;;;2215623;66;2206;-20
2023/12/09 13:27:28;;;;;;;;;;;;;;;;;;2215530;66;1937;-20
2023/12/09 13:30:00;;;;;;;;;;;;;;;;;;2210498;58;2492;-17
2023/12/09 13:32:30;;;;;;;;;;;;;;;;;;2210703;58;2583;-17
2023/12/09 13:35:01;;;;;;;;;;;;;;;;;;2209561;58;2321;-17
2023/12/09 13:37:31;;;;;;;;;;;;;;;;;;2210779;58;3354;-17
2023/12/09 13:40:02;;;;;;;;;;;;;;;;;;2210320;58;2902;-17
2023/12/09 13:42:33;;;;;;;;;;;;;;;;;;2211102;59;3041;-18
2023/12/09 13:45:05;;;;;;;;;;;;;;;;;;2206356;59;3529;-18
2023/12/09 13:47:35;;;;;;;;;;;;;;;;;;2208856;59;4134;-17
2023/12/09 13:50:07;;;;;;;;;;;;;;;;;;2208444;58;2722;-17
2023/12/09 13:52:37;;;;;;;;;;;;;;;;;;2209391;58;4170;-17
2023/12/09 13:55:08;;;;;;;;;;;;;;;;;;2211791;58;2761;-17
2023/12/09 13:57:38;;;;;;;;;;;;;;;;;;2213145;58;3039;-17
2023/12/09 14:00:09;;;;;;;;;;;;;;;;;;2213018;58;2445;-17
2023/12/09 14:02:39;;;;;;;;;;;;;;;;;;2213470;59;2676;-17
2023/12/09 14:05:09;;;;;;;;;;;;;;;;;;2212147;58;2561;-17
2023/12/09 14:07:40;;;;;;;;;;;;;;;;;;2211626;59;2705;-18
2023/12/09 14:10:12;;;;;;;;;;;;;;;;;;2214184;58;2322;-17
2023/12/09 14:12:43;;;;;;;;;;;;;;;;;;2213601;58;3272;-18
2023/12/09 14:15:14;;;;;;;;;;;;;;;;;;2211700;58;2649;-17
2023/12/09 14:17:44;;;;;;;;;;;;;;;;;;2213739;58;2459;-18
2023/12/09 14:20:15;;;;;;;;;;;;;;;;;;2212970;58;2626;-17
2023/12/09 14:22:45;;;;;;;;;;;;;;;;;;2213473;58;2102;-18
2023/12/09 14:25:15;;;;;;;;;;;;;;;;;;2212523;58;2064;-18
2023/12/09 14:27:46;;;;;;;;;;;;;;;;;;2213304;58;2113;-17
2023/12/09 14:30:16;;;;;;;;;;;;;;;;;;2213237;58;2283;-17
2023/12/09 14:32:47;;;;;;;;;;;;;;;;;;2212501;58;2137;-17
2023/12/09 14:35:17;;;;;;;;;;;;;;;;;;2212096;58;2231;-17
2023/12/09 14:37:48;;;;;;;;;;;;;;;;;;2213033;59;2637;-17
2023/12/09 14:40:18;;;;;;;;;;;;;;;;;;2212842;59;3102;-17
2023/12/09 14:42:49;;;;;;;;;;;;;;;;;;2214319;58;2632;-17
2023/12/09 14:45:19;;;;;;;;;;;;;;;;;;2213758;59;2371;-17
2023/12/09 14:47:50;;;;;;;;;;;;;;;;;;2213962;58;2246;-17
2023/12/09 14:50:21;;;;;;;;;;;;;;;;;;2207775;58;3432;-20
2023/12/09 14:52:51;;;;;;;;;;;;;;;;;;2213079;58;3021;-20
2023/12/09 14:55:22;;;;;;;;;;;;;;;;;;2212068;58;3317;-20
2023/12/09 14:57:52;;;;;;;;;;;;;;;;;;2211486;58;3592;-20
2023/12/09 15:00:23;;;;;;;;;;;;;;;;;;2214167;58;2318;-18
2023/12/09 15:02:53;;;;;;;;;;;;;;;;;;2214338;58;2512;-23
2023/12/09 15:05:25;;;;;;;;;;;;;;;;;;2213416;58;2419;-18
2023/12/09 15:07:56;;;;;;;;;;;;;;;;;;2214181;58;2456;-18
2023/12/09 15:10:27;;;;;;;;;;;;;;;;;;2210327;58;2694;-17
2023/12/09 15:12:57;;;;;;;;;;;;;;;;;;2214109;58;2476;-18
2023/12/09 15:15:28;;;;;;;;;;;;;;;;;;2211504;58;4040;-18
2023/12/09 15:17:58;;;;;;;;;;;;;;;;;;2215166;58;2272;-20
2023/12/09 15:20:29;;;;;;;;;;;;;;;;;;2213952;58;2632;-17
2023/12/09 15:22:59;;;;;;;;;;;;;;;;;;2214434;58;2221;-17
2023/12/09 15:25:30;;;;;;;;;;;;;;;;;;2213427;58;3407;-18
2023/12/09 15:28:01;;;;;;;;;;;;;;;;;;2211845;58;2108;-18
2023/12/09 15:30:32;;;;;;;;;;;;;;;;;;2211009;58;2719;-18
2023/12/09 15:33:02;;;;;;;;;;;;;;;;;;2213812;58;3741;-18
2023/12/09 15:35:32;;;;;;;;;;;;;;;;;;2212944;59;2070;-20
2023/12/09 15:38:04;;;;;;;;;;;;;;;;;;2213964;59;1969;-20
2023/12/09 15:40:34;;;;;;;;;;;;;;;;;;2209436;58;2784;-21
2023/12/09 15:43:05;;;;;;;;;;;;;;;;;;2211038;58;1950;-21
2023/12/09 15:45:35;;;;;;;;;;;;;;;;;;2210950;66;1875;-21
2023/12/09 15:48:05;;;;;;;;;;;;;;;;;;2215688;58;2302;-21
2023/12/09 15:50:36;;;;;;;;;;;;;;;;;;2214656;58;2000;-17
2023/12/09 15:53:06;;;;;;;;;;;;;;;;;;2214916;59;1727;-18
2023/12/09 15:55:37;;;;;;;;;;;;;;;;;;2213167;59;2252;-18
2023/12/09 15:58:07;;;;;;;;;;;;;;;;;;2215507;58;2408;-18
2023/12/09 16:00:40;;;;;;;;;;;;;;;;;;2209271;58;3174;-18
2023/12/09 16:03:12;;;;;;;;;;;;;;;;;;2213303;58;2038;-21
2023/12/09 16:05:42;;;;;;;;;;;;;;;;;;2213924;58;2299;-18
2023/12/09 16:08:13;;;;;;;;;;;;;;;;;;2213729;58;2951;-18
2023/12/09 16:10:44;;;;;;;;;;;;;;;;;;2210871;59;2128;-21
2023/12/09 16:13:15;;;;;;;;;;;;;;;;;;2214230;58;2360;-20
2023/12/09 16:15:46;;;;;;;;;;;;;;;;;;2217149;58;1808;-20
2023/12/09 16:18:16;;;;;;;;;;;;;;;;;;2214883;58;2266;-21
2023/12/09 16:20:46;;;;;;;;;;;;;;;;;;2215913;66;1981;-20
2023/12/09 16:23:17;;;;;;;;;;;;;;;;;;2214611;58;2567;-21
2023/12/09 16:25:47;;;;;;;;;;;;;;;;;;2215408;58;2698;-21
2023/12/09 16:28:18;;;;;;;;;;;;;;;;;;2213550;58;2422;-18
2023/12/09 16:30:48;;;;;;;;;;;;;;;;;;2214067;58;3257;-18
2023/12/09 16:33:19;;;;;;;;;;;;;;;;;;2213881;58;3765;-18
2023/12/09 16:35:49;;;;;;;;;;;;;;;;;;2214170;59;2758;-21
2023/12/09 16:38:19;;;;;;;;;;;;;;;;;;2214299;58;2622;-19
2023/12/09 16:40:50;;;;;;;;;;;;;;;;;;2214269;58;2833;-21
2023/12/09 16:43:20;;;;;;;;;;;;;;;;;;2213989;58;1979;-21
2023/12/09 16:45:51;;;;;;;;;;;;;;;;;;2213767;58;1811;-19
2023/12/09 16:48:22;;;;;;;;;;;;;;;;;;2213646;58;4748;-19
2023/12/09 16:50:52;;;;;;;;;;;;;;;;;;2214760;58;3981;-19
2023/12/09 16:53:22;;;;;;;;;;;;;;;;;;2216043;58;2756;-19
2023/12/09 16:55:53;;;;;;;;;;;;;;;;;;2214681;59;2205;-19
2023/12/09 16:58:24;;;;;;;;;;;;;;;;;;2211463;59;2690;-22
2023/12/09 17:00:54;;;;;;;;;;;;;;;;;;2216663;58;3248;-22
2023/12/09 17:03:25;;;;;;;;;;;;;;;;;;2215041;58;2559;-22
2023/12/09 17:05:55;;;;;;;;;;;;;;;;;;2214692;58;3773;-22
2023/12/09 17:08:26;;;;;;;;;;;;;;;;;;2214944;58;3146;-19
2023/12/09 17:10:57;;;;;;;;;;;;;;;;;;2212173;59;2241;-19
2023/12/09 17:13:28;;;;;;;;;;;;;;;;;;2213344;58;2505;-23
2023/12/09 17:15:58;;;;;;;;;;;;;;;;;;2215641;58;2572;-22
2023/12/09 17:18:29;;;;;;;;;;;;;;;;;;2214103;58;2140;-20
2023/12/09 17:20:59;;;;;;;;;;;;;;;;;;2214239;58;2079;-20
2023/12/09 17:23:33;;;;;;;;;;;;;;;;;;2215522;59;2274;-20
2023/12/09 17:26:03;;;;;;;;;;;;;;;;;;2212004;58;2228;-20